createdAt,value
2018-04-12T00:00:49.150Z,35.57
2018-04-12T00:03:17.483Z,35.17
2018-04-12T00:05:45.011Z,33.43
2018-04-12T00:08:12.536Z,35.13
2018-04-12T00:10:41.250Z,33.90
2018-04-12T00:13:08.775Z,34.20
2018-04-12T00:15:37.095Z,32.10
2018-04-12T00:18:04.655Z,34.07
2018-04-12T00:20:32.805Z,33.17
2018-04-12T00:23:00.318Z,35.40
2018-04-12T00:25:27.879Z,33.60
2018-04-12T00:27:55.451Z,33.40
2018-04-12T00:30:22.982Z,34.00
2018-04-12T00:32:50.548Z,32.60
2018-04-12T00:35:18.079Z,33.37
2018-04-12T00:37:45.632Z,34.23
2018-04-12T00:40:13.190Z,35.97
2018-04-12T00:42:40.717Z,34.40
2018-04-12T00:45:09.032Z,34.97
2018-04-12T00:47:36.579Z,33.87
2018-04-12T00:50:04.153Z,32.80
2018-04-12T00:52:32.319Z,36.07
2018-04-12T00:54:59.873Z,32.17
2018-04-12T00:57:28.231Z,35.10
2018-04-12T00:59:55.767Z,35.73
2018-04-12T01:02:24.097Z,36.90
2018-04-12T01:04:51.646Z,36.00
2018-04-12T01:07:19.157Z,36.37
2018-04-12T01:09:46.710Z,34.90
2018-04-12T01:12:14.258Z,35.37
2018-04-12T01:14:42.552Z,32.27
2018-04-12T01:17:10.982Z,37.00
2018-04-12T01:19:38.492Z,34.20
2018-04-12T01:22:06.774Z,36.20
2018-04-12T01:24:34.323Z,35.67
2018-04-12T01:27:02.597Z,37.37
2018-04-12T01:29:30.221Z,37.90
2018-04-12T01:31:57.788Z,38.87
2018-04-12T01:34:25.330Z,39.90
2018-04-12T01:36:52.888Z,39.70
2018-04-12T01:39:20.436Z,39.50
2018-04-12T01:41:47.964Z,38.20
2018-04-12T01:44:16.249Z,39.30
2018-04-12T01:46:44.578Z,41.07
2018-04-12T01:49:12.215Z,41.90
2018-04-12T01:51:39.721Z,39.90
2018-04-12T01:54:08.055Z,41.10
2018-04-12T01:56:35.609Z,38.90
2018-04-12T01:59:03.124Z,37.70
2018-04-12T02:01:31.533Z,39.00
2018-04-12T02:03:59.056Z,39.80
2018-04-12T02:06:27.379Z,39.27
2018-04-12T02:08:54.923Z,40.40
2018-04-12T02:11:22.439Z,38.17
2018-04-12T02:13:49.977Z,39.97
2018-04-12T02:16:17.606Z,38.93
2018-04-12T02:18:45.117Z,40.80
2018-04-12T02:21:12.722Z,40.07
2018-04-12T02:23:40.611Z,40.00
2018-04-12T02:26:08.153Z,38.30
2018-04-12T02:28:35.670Z,40.27
2018-04-12T02:31:03.995Z,41.23
2018-04-12T02:33:31.519Z,42.57
2018-04-12T02:35:59.102Z,40.87
2018-04-12T02:38:26.664Z,42.73
2018-04-12T02:40:54.200Z,42.63
2018-04-12T02:43:21.771Z,42.50
2018-04-12T02:45:49.321Z,39.90
2018-04-12T02:48:16.845Z,41.77
2018-04-12T02:50:44.478Z,42.80
2018-04-12T02:53:12.119Z,42.70
2018-04-12T02:55:39.646Z,43.80
2018-04-12T02:58:07.955Z,45.30
2018-04-12T03:00:35.622Z,45.67
2018-04-12T03:03:03.156Z,45.47
2018-04-12T03:05:30.678Z,45.03
2018-04-12T03:07:58.299Z,47.07
2018-04-12T03:10:25.843Z,47.97
2018-04-12T03:12:53.422Z,46.03
2018-04-12T03:15:20.985Z,45.90
2018-04-12T03:17:48.521Z,46.20
2018-04-12T03:20:16.055Z,46.60
2018-04-12T03:22:43.615Z,46.53
2018-04-12T03:25:11.143Z,50.90
2018-04-12T03:27:38.675Z,46.20
2018-04-12T03:30:06.242Z,46.30
2018-04-12T03:32:33.761Z,44.87
2018-04-12T03:35:01.778Z,47.20
2018-04-12T03:37:30.347Z,43.30
2018-04-12T03:39:57.871Z,44.27
2018-04-12T03:42:25.440Z,44.60
2018-04-12T03:44:52.992Z,42.03
2018-04-12T03:47:20.508Z,45.50
2018-04-12T03:49:48.018Z,41.00
2018-04-12T03:52:15.567Z,45.83
2018-04-12T03:54:43.092Z,45.60
2018-04-12T03:57:11.373Z,45.13
2018-04-12T03:59:39.778Z,44.47
2018-04-12T04:02:07.297Z,46.90
2018-04-12T04:04:35.620Z,45.07
2018-04-12T04:07:03.176Z,42.37
2018-04-12T04:09:30.736Z,44.33
2018-04-12T04:11:58.264Z,47.23
2018-04-12T04:14:38.501Z,46.60
2018-04-12T04:17:18.743Z,45.90
2018-04-12T04:19:58.355Z,47.17
2018-04-12T04:22:25.876Z,46.27
2018-04-12T04:24:54.176Z,47.23
2018-04-12T04:27:21.730Z,47.77
2018-04-12T04:29:49.258Z,45.60
2018-04-12T04:32:17.621Z,44.60
2018-04-12T04:34:45.234Z,43.90
2018-04-12T04:37:12.789Z,44.23
2018-04-12T04:39:40.320Z,44.80
2018-04-12T04:42:08.655Z,45.10
2018-04-12T04:44:36.180Z,45.80
2018-04-12T04:47:03.740Z,47.47
2018-04-12T04:49:31.311Z,47.67
2018-04-12T04:51:58.812Z,46.67
2018-04-12T04:54:26.342Z,45.77
2018-04-12T04:56:53.891Z,47.43
2018-04-12T04:59:21.449Z,47.23
2018-04-12T05:01:48.965Z,47.10
2018-04-12T05:04:17.272Z,46.07
2018-04-12T05:06:44.809Z,45.63
2018-04-12T05:09:12.359Z,47.63
2018-04-12T05:11:40.774Z,47.00
2018-04-12T05:14:08.331Z,49.43
2018-04-12T05:16:35.982Z,48.27
2018-04-12T05:19:03.557Z,46.77
2018-04-12T05:21:31.086Z,47.43
2018-04-12T05:23:58.600Z,47.80
2018-04-12T05:26:26.162Z,45.37
2018-04-12T05:28:53.687Z,49.03
2018-04-12T05:31:21.216Z,47.93
2018-04-12T05:33:48.798Z,49.50
2018-04-12T05:36:16.349Z,46.37
2018-04-12T05:38:43.928Z,51.77
2018-04-12T05:41:11.486Z,48.70
2018-04-12T05:43:39.034Z,51.20
2018-04-12T05:46:06.560Z,51.43
2018-04-12T05:48:34.871Z,51.80
2018-04-12T05:51:02.417Z,50.53
2018-04-12T05:53:29.996Z,54.27
2018-04-12T05:55:57.625Z,52.30
2018-04-12T05:58:25.199Z,54.23
2018-04-12T06:00:52.767Z,53.53
2018-04-12T06:03:20.335Z,54.50
2018-04-12T06:05:48.008Z,53.47
2018-04-12T06:08:15.638Z,54.00
2018-04-12T06:10:43.207Z,56.27
2018-04-12T06:13:10.737Z,53.53
2018-04-12T06:15:38.267Z,53.33
2018-04-12T06:18:06.691Z,54.80
2018-04-12T06:20:34.252Z,51.83
2018-04-12T06:23:01.908Z,54.73
2018-04-12T06:25:29.505Z,53.43
2018-04-12T06:27:57.047Z,55.27
2018-04-12T06:30:24.580Z,55.63
2018-04-12T06:32:52.152Z,53.93
2018-04-12T06:35:19.701Z,55.70
2018-04-12T06:37:47.252Z,54.40
2018-04-12T06:40:14.814Z,51.83
2018-04-12T06:42:42.332Z,53.57
2018-04-12T06:45:09.863Z,55.20
2018-04-12T06:47:37.426Z,53.07
2018-04-12T06:50:04.950Z,52.50
2018-04-12T06:52:32.476Z,54.70
2018-04-12T06:55:00.814Z,51.50
2018-04-12T06:57:28.475Z,53.47
2018-04-12T06:59:56.012Z,53.87
2018-04-12T07:02:23.600Z,53.50
2018-04-12T07:04:51.223Z,57.17
2018-04-12T07:07:18.752Z,52.70
2018-04-12T07:09:47.167Z,53.67
2018-04-12T07:12:14.721Z,51.90
2018-04-12T07:14:42.349Z,50.77
2018-04-12T07:17:10.679Z,50.23
2018-04-12T07:19:38.209Z,44.77
2018-04-12T07:22:05.749Z,44.77
2018-04-12T07:24:34.163Z,44.63
2018-04-12T07:27:01.707Z,45.30
2018-04-12T07:29:29.267Z,44.13
2018-04-12T07:31:56.945Z,41.90
2018-04-12T07:34:24.482Z,43.13
2018-04-12T07:36:52.013Z,46.50
2018-04-12T07:39:20.393Z,43.73
2018-04-12T07:41:48.721Z,47.63
2018-04-12T07:44:16.254Z,43.93
2018-04-12T07:46:43.930Z,39.80
2018-04-12T07:49:11.521Z,41.37
2018-04-12T07:51:40.593Z,39.60
2018-04-12T07:54:08.153Z,39.53
2018-04-12T07:56:35.697Z,39.47
2018-04-12T07:59:03.480Z,40.00
2018-04-12T08:01:31.044Z,38.13
2018-04-12T08:03:58.562Z,37.30
2018-04-12T08:06:26.089Z,36.77
2018-04-12T08:08:54.416Z,38.13
2018-04-12T08:11:21.963Z,37.07
2018-04-12T08:13:49.536Z,35.57
2018-04-12T08:16:17.116Z,34.80
2018-04-12T08:18:46.167Z,36.23
2018-04-12T08:21:13.690Z,35.93
2018-04-12T08:23:41.329Z,38.70
2018-04-12T08:26:08.813Z,33.60
2018-04-12T08:28:37.103Z,35.13
2018-04-12T08:31:05.438Z,34.67
2018-04-12T08:33:33.080Z,35.10
2018-04-12T08:36:00.602Z,33.63
2018-04-12T08:38:28.593Z,33.90
2018-04-12T08:40:56.167Z,34.70
2018-04-12T08:43:23.765Z,35.67
2018-04-12T08:45:51.356Z,35.30
2018-04-12T08:48:18.877Z,32.50
2018-04-12T08:50:46.406Z,33.30
2018-04-12T08:53:13.963Z,34.00
2018-04-12T08:55:41.508Z,33.30
2018-04-12T08:58:09.046Z,33.90
2018-04-12T09:00:36.627Z,34.20
2018-04-12T09:03:04.145Z,36.43
2018-04-12T09:05:32.424Z,33.53
2018-04-12T09:08:00.756Z,33.97
2018-04-12T09:10:28.288Z,34.20
2018-04-12T09:12:55.801Z,32.87
2018-04-12T09:15:24.122Z,31.10
2018-04-12T09:17:51.699Z,31.60
2018-04-12T09:20:19.243Z,32.30
2018-04-12T09:22:46.935Z,32.07
2018-04-12T09:25:14.460Z,33.37
2018-04-12T09:27:42.021Z,32.77
2018-04-12T09:30:09.594Z,30.10
2018-04-12T09:32:37.435Z,31.07
2018-04-12T09:35:04.970Z,31.23
2018-04-12T09:37:33.320Z,33.93
2018-04-12T09:40:00.939Z,31.63
2018-04-12T09:42:28.462Z,33.47
2018-04-12T09:44:56.799Z,31.73
2018-04-12T09:47:24.432Z,31.40
2018-04-12T09:49:52.005Z,30.97
2018-04-12T09:52:19.575Z,30.17
2018-04-12T09:54:47.128Z,32.87
2018-04-12T09:57:14.680Z,29.40
2018-04-12T09:59:42.328Z,32.60
2018-04-12T10:02:09.891Z,30.97
2018-04-12T10:04:43.068Z,35.90
2018-04-12T10:07:10.600Z,33.23
2018-04-12T10:09:38.910Z,32.50
2018-04-12T10:12:06.462Z,31.60
2018-04-12T10:14:33.978Z,33.90
2018-04-12T10:17:01.509Z,31.47
2018-04-12T10:19:29.080Z,32.40
2018-04-12T10:21:56.596Z,32.53
2018-04-12T10:24:24.160Z,31.30
2018-04-12T10:26:51.725Z,32.50
2018-04-12T10:29:19.246Z,30.87
2018-04-12T10:31:47.539Z,30.80
2018-04-12T10:34:15.089Z,32.73
2018-04-12T10:36:43.373Z,32.73
2018-04-12T10:39:11.030Z,31.20
2018-04-12T10:41:38.651Z,32.37
2018-04-12T10:44:06.141Z,31.73
2018-04-12T10:46:34.427Z,31.37
2018-04-12T10:49:02.014Z,31.27
2018-04-12T10:51:29.562Z,33.97
2018-04-12T10:53:57.091Z,34.77
2018-04-12T10:56:25.429Z,34.70
2018-04-12T10:58:52.992Z,33.40
2018-04-12T11:01:20.514Z,33.43
2018-04-12T11:03:48.238Z,34.10
2018-04-12T11:06:16.551Z,32.80
2018-04-12T11:08:44.099Z,33.57
2018-04-12T11:11:11.627Z,36.47
2018-04-12T11:13:39.966Z,34.97
2018-04-12T11:16:08.279Z,32.67
2018-04-12T11:18:36.569Z,32.50
2018-04-12T11:21:04.915Z,32.93
2018-04-12T11:23:32.417Z,36.07
2018-04-12T11:25:59.945Z,34.77
2018-04-12T11:28:27.501Z,35.17
2018-04-12T11:30:55.106Z,34.63
2018-04-12T11:33:22.642Z,34.73
2018-04-12T11:35:51.322Z,33.40
2018-04-12T11:38:19.618Z,34.30
2018-04-12T11:40:47.196Z,34.77
2018-04-12T11:43:14.749Z,34.43
2018-04-12T11:45:42.280Z,34.87
2018-04-12T11:48:09.823Z,34.07
2018-04-12T11:50:38.145Z,34.73
2018-04-12T11:53:05.670Z,35.20
2018-04-12T11:55:33.972Z,34.80
2018-04-12T11:58:02.375Z,34.17
2018-04-12T12:00:29.886Z,34.10
2018-04-12T12:02:58.163Z,35.20
2018-04-12T12:05:25.745Z,33.60
2018-04-12T12:07:53.279Z,34.00
2018-04-12T12:10:20.872Z,33.90
2018-04-12T12:12:48.439Z,34.40
2018-04-12T12:15:15.976Z,33.77
2018-04-12T12:17:43.501Z,34.10
2018-04-12T12:20:11.830Z,34.17
2018-04-12T12:22:39.384Z,36.40
2018-04-12T12:25:06.928Z,35.60
2018-04-12T12:27:34.503Z,35.37
2018-04-12T12:30:02.091Z,35.53
2018-04-12T12:32:29.623Z,35.57
2018-04-12T12:34:57.188Z,33.30
2018-04-12T12:37:24.716Z,32.33
2018-04-12T12:40:04.083Z,33.53
2018-04-12T12:42:37.225Z,35.30
2018-04-12T12:45:11.377Z,34.03
2018-04-12T12:47:44.960Z,34.70
2018-04-12T12:50:18.517Z,35.50
2018-04-12T12:52:46.822Z,35.40
2018-04-12T12:55:25.999Z,35.57
2018-04-12T12:57:59.504Z,35.13
2018-04-12T13:00:27.080Z,33.40
2018-04-12T13:02:55.374Z,33.90
2018-04-12T13:05:23.662Z,34.07
2018-04-12T13:07:57.098Z,33.37
2018-04-12T13:10:30.237Z,32.87
2018-04-12T13:12:58.563Z,31.40
2018-04-12T13:15:26.096Z,32.77
2018-04-12T13:17:59.620Z,32.87
2018-04-12T13:20:27.271Z,31.80
2018-04-12T13:22:54.800Z,30.20
2018-04-12T13:25:22.355Z,29.33
2018-04-12T13:27:55.545Z,31.23
2018-04-12T13:30:23.155Z,29.53
2018-04-12T13:32:56.450Z,29.83
2018-04-12T13:35:30.705Z,29.87
2018-04-12T13:37:59.017Z,31.87
2018-04-12T13:40:32.512Z,29.90
2018-04-12T13:43:05.847Z,30.67
2018-04-12T13:45:33.453Z,29.40
2018-04-12T13:48:06.782Z,29.73
2018-04-12T13:50:34.329Z,30.33
2018-04-12T13:53:02.273Z,31.33
2018-04-12T13:55:35.627Z,30.20
2018-04-12T13:58:03.338Z,30.97
2018-04-12T14:00:37.876Z,30.20
2018-04-12T14:03:05.398Z,32.63
2018-04-12T14:05:33.077Z,32.83
2018-04-12T14:08:00.630Z,32.57
2018-04-12T14:10:28.208Z,33.87
2018-04-12T14:13:01.719Z,32.80
2018-04-12T14:15:35.211Z,32.50
2018-04-12T14:18:02.768Z,32.60
2018-04-12T14:20:30.321Z,33.90
2018-04-12T14:22:57.882Z,33.50
2018-04-12T14:25:30.968Z,36.60
2018-04-12T14:27:58.479Z,36.70
2018-04-12T14:30:27.809Z,35.50
2018-04-12T14:33:01.120Z,37.33
2018-04-12T14:35:34.473Z,35.60
2018-04-12T14:38:07.754Z,35.67
2018-04-12T14:40:36.051Z,35.70
2018-04-12T14:43:04.343Z,34.83
2018-04-12T14:45:31.911Z,34.70
2018-04-12T14:48:05.419Z,34.97
2018-04-12T14:50:39.219Z,35.70
2018-04-12T14:53:06.868Z,33.93
2018-04-12T14:55:34.438Z,36.50
2018-04-12T14:58:07.693Z,35.77
2018-04-12T15:00:36.064Z,36.07
2018-04-12T15:03:09.524Z,36.80
2018-04-12T15:05:37.158Z,38.23
2018-04-12T15:08:10.608Z,39.13
2018-04-12T15:10:38.210Z,37.37
2018-04-12T15:13:11.816Z,37.90
2018-04-12T15:15:39.334Z,38.60
2018-04-12T15:18:13.242Z,38.40
2018-04-12T15:20:41.969Z,39.40
2018-04-12T15:23:09.537Z,39.53
2018-04-12T15:25:37.100Z,39.67
2018-04-12T15:28:10.556Z,39.60
2018-04-12T15:30:44.003Z,38.27
2018-04-12T15:33:11.518Z,37.90
2018-04-12T15:35:39.055Z,36.30
2018-04-12T15:38:13.345Z,38.67
2018-04-12T15:40:46.969Z,37.20
2018-04-12T15:43:15.387Z,37.37
2018-04-12T15:45:42.917Z,37.27
2018-04-12T15:48:17.253Z,37.30
2018-04-12T15:50:44.838Z,40.17
2018-04-12T15:53:12.397Z,38.23
2018-04-12T15:55:39.957Z,36.80
2018-04-12T15:58:13.172Z,38.40
2018-04-12T16:00:40.722Z,36.87
2018-04-12T16:03:08.237Z,38.10
2018-04-12T16:05:35.855Z,39.30
2018-04-12T16:08:04.267Z,38.90
2018-04-12T16:10:31.794Z,37.17
2018-04-12T16:12:59.325Z,38.40
2018-04-12T16:15:26.952Z,39.30
2018-04-12T16:18:00.382Z,38.37
2018-04-12T16:20:33.753Z,40.17
2018-04-12T16:23:01.421Z,43.53
2018-04-12T16:25:29.457Z,41.63
2018-04-12T16:27:57.779Z,40.90
2018-04-12T16:30:25.290Z,43.20
2018-04-12T16:32:53.584Z,56.33
2018-04-12T16:35:21.143Z,48.27
2018-04-12T16:37:48.666Z,46.47
2018-04-12T16:40:22.916Z,46.80
2018-04-12T16:42:56.329Z,44.40
2018-04-12T16:45:23.881Z,44.60
2018-04-12T16:47:51.403Z,44.33
2018-04-12T16:50:19.716Z,43.93
2018-04-12T16:52:52.895Z,43.80
2018-04-12T16:55:20.481Z,44.27
2018-04-12T16:57:53.982Z,43.50
2018-04-12T17:00:21.522Z,45.00
2018-04-12T17:02:49.056Z,44.07
2018-04-12T17:05:17.388Z,42.83
2018-04-12T17:07:50.784Z,46.40
2018-04-12T17:10:18.421Z,44.83
2018-04-12T17:12:45.947Z,44.40
2018-04-12T17:15:14.245Z,44.90
2018-04-12T17:17:42.222Z,45.90
2018-04-12T17:20:15.272Z,47.10
2018-04-12T17:22:49.538Z,45.60
2018-04-12T17:25:17.058Z,49.10
2018-04-12T17:27:44.647Z,46.70
2018-04-12T17:30:18.095Z,48.10
2018-04-12T17:32:46.434Z,47.50
2018-04-12T17:35:13.989Z,47.40
2018-04-12T17:37:41.521Z,49.10
2018-04-12T17:40:09.084Z,46.20
2018-04-12T17:42:36.645Z,45.67
2018-04-12T17:45:04.175Z,48.57
2018-04-12T17:47:38.175Z,49.00
2018-04-12T17:50:06.484Z,49.67
2018-04-12T17:52:40.087Z,47.97
2018-04-12T17:55:07.652Z,51.20
2018-04-12T17:57:35.206Z,50.17
2018-04-12T18:00:02.792Z,51.20
2018-04-12T18:02:30.321Z,53.87
2018-04-12T18:05:03.805Z,52.47
2018-04-12T18:07:37.302Z,52.17
2018-04-12T18:10:04.876Z,54.90
2018-04-12T18:12:38.300Z,55.57
2018-04-12T18:15:05.810Z,52.70
2018-04-12T18:17:34.109Z,59.30
2018-04-12T18:20:07.721Z,57.83
2018-04-12T18:22:35.264Z,56.67
2018-04-12T18:25:02.796Z,58.07
2018-04-12T18:27:30.357Z,61.90
2018-04-12T18:30:04.508Z,62.77
2018-04-12T18:32:32.068Z,63.30
2018-04-12T18:34:59.596Z,66.60
2018-04-12T18:37:27.123Z,64.10
2018-04-12T18:39:54.755Z,64.10
2018-04-12T18:42:27.995Z,63.43
2018-04-12T18:45:02.349Z,66.50
2018-04-12T18:47:29.877Z,68.33
2018-04-12T18:49:58.179Z,65.70
2018-04-12T18:52:31.683Z,61.10
2018-04-12T18:54:59.206Z,64.20
2018-04-12T18:57:27.520Z,64.07
2018-04-12T18:59:55.103Z,63.23
2018-04-12T19:02:22.737Z,62.70
2018-04-12T19:04:50.276Z,63.70
2018-04-12T19:07:23.644Z,63.70
2018-04-12T19:09:51.929Z,64.03
2018-04-12T19:12:20.237Z,66.43
2018-04-12T19:14:47.796Z,68.27
2018-04-12T19:17:27.170Z,68.30
2018-04-12T19:20:01.650Z,66.77
2018-04-12T19:22:40.962Z,68.80
2018-04-12T19:25:08.554Z,68.07
2018-04-12T19:27:36.089Z,70.53
2018-04-12T19:30:03.623Z,68.40
2018-04-12T19:32:37.697Z,68.67
2018-04-12T19:35:05.225Z,65.50
2018-04-12T19:37:32.981Z,66.23
2018-04-12T19:40:00.544Z,67.87
2018-04-12T19:42:34.164Z,63.77
2018-04-12T19:45:07.314Z,65.10
2018-04-12T19:47:35.618Z,64.20
2018-04-12T19:50:03.138Z,64.07
2018-04-12T19:52:37.514Z,65.97
2018-04-12T19:55:10.855Z,64.77
2018-04-12T19:57:39.184Z,63.73
2018-04-12T20:00:06.744Z,65.00
2018-04-12T20:02:40.144Z,66.13
2018-04-12T20:05:07.696Z,71.17
2018-04-12T20:07:35.259Z,67.20
2018-04-12T20:10:02.901Z,66.10
2018-04-12T20:12:30.454Z,69.60
2018-04-12T20:14:57.978Z,69.93
2018-04-12T20:17:38.159Z,68.50
2018-04-12T20:20:05.690Z,65.73
2018-04-12T20:22:39.733Z,66.60
2018-04-12T20:25:13.236Z,68.77
2018-04-12T20:27:46.725Z,69.87
2018-04-12T20:30:20.017Z,71.30
2018-04-12T20:32:47.592Z,74.13
2018-04-12T20:35:15.119Z,70.17
2018-04-12T20:37:42.635Z,74.00
2018-04-12T20:40:10.212Z,73.00
2018-04-12T20:42:37.744Z,75.47
2018-04-12T20:45:05.273Z,72.47
2018-04-12T20:47:32.839Z,74.87
2018-04-12T20:50:00.401Z,72.40
2018-04-12T20:52:27.951Z,69.50
2018-04-12T20:55:01.418Z,75.53
2018-04-12T20:57:29.718Z,72.27
2018-04-12T21:00:03.237Z,73.73
2018-04-12T21:02:30.775Z,73.20
2018-04-12T21:04:58.305Z,71.47
2018-04-12T21:07:32.515Z,70.17
2018-04-12T21:10:00.842Z,71.57
2018-04-12T21:12:34.442Z,73.03
2018-04-12T21:15:02.015Z,71.77
2018-04-12T21:17:29.561Z,73.43
2018-04-12T21:19:57.130Z,74.70
2018-04-12T21:22:25.073Z,73.87
2018-04-12T21:25:04.577Z,75.97
2018-04-12T21:27:38.458Z,74.80
2018-04-12T21:30:07.619Z,73.70
2018-04-12T21:32:35.178Z,76.90
2018-04-12T21:35:08.786Z,75.73
2018-04-12T21:37:42.009Z,80.00
2018-04-12T21:40:15.675Z,74.37
2018-04-12T21:42:43.203Z,79.77
2018-04-12T21:45:16.423Z,79.50
2018-04-12T21:47:43.960Z,85.63
2018-04-12T21:50:11.491Z,83.37
2018-04-12T21:52:39.809Z,83.60
2018-04-12T21:55:07.483Z,84.30
2018-04-12T21:57:35.001Z,85.27
2018-04-12T22:00:03.417Z,80.97
2018-04-12T22:02:30.943Z,82.53
2018-04-12T22:05:10.361Z,84.67
2018-04-12T22:07:38.699Z,85.27
2018-04-12T22:10:06.247Z,86.90
2018-04-12T22:12:33.791Z,83.10
2018-04-12T22:15:01.371Z,83.70
2018-04-12T22:17:28.890Z,80.00
2018-04-12T22:20:03.154Z,82.77
2018-04-12T22:22:36.713Z,78.83
2018-04-12T22:25:04.261Z,82.47
2018-04-12T22:27:32.564Z,80.67
2018-04-12T22:30:00.084Z,77.07
2018-04-12T22:32:28.424Z,83.27
2018-04-12T22:35:01.634Z,80.30
2018-04-12T22:37:29.247Z,81.50
2018-04-12T22:39:56.764Z,85.40
2018-04-12T22:42:25.053Z,89.43
2018-04-12T22:44:53.774Z,88.07
2018-04-12T22:47:21.301Z,83.80
2018-04-12T22:49:49.588Z,84.50
2018-04-12T22:52:23.002Z,87.17
2018-04-12T22:54:50.538Z,81.90
2018-04-12T22:57:18.061Z,80.80
2018-04-12T22:59:52.440Z,82.90
2018-04-12T23:02:19.981Z,83.30
2018-04-12T23:04:47.515Z,86.30
2018-04-12T23:07:15.932Z,83.37
2018-04-12T23:09:43.459Z,86.10
2018-04-12T23:12:11.766Z,84.77
2018-04-12T23:14:45.205Z,81.60
2018-04-12T23:17:12.739Z,83.10
2018-04-12T23:19:40.275Z,79.43
2018-04-12T23:22:07.838Z,80.20
2018-04-12T23:24:35.405Z,80.13
2018-04-12T23:27:02.932Z,77.83
2018-04-12T23:29:30.513Z,78.10
2018-04-12T23:32:03.628Z,78.57
2018-04-12T23:34:31.572Z,80.70
2018-04-12T23:36:59.125Z,88.20
2018-04-12T23:39:26.659Z,87.73
2018-04-12T23:42:00.767Z,97.67
2018-04-12T23:44:29.062Z,91.80
2018-04-12T23:46:56.633Z,87.67
2018-04-12T23:49:24.168Z,84.37
2018-04-12T23:51:51.755Z,88.33
2018-04-12T23:54:25.025Z,93.50
2018-04-12T23:56:52.615Z,101.53
2018-04-12T23:59:20.152Z,102.67
